Time;durP1;ratioP1;P1;durP2;ratioP2;P2;SDS_P1;SDS_P2;PMS_P1;PMS_P2;Temp;Humidity;BMP_temperature;BMP_pressure;BME280_temperature;BME280_humidity;BME280_pressure;Samples;Min_cycle;Max_cycle;Signal;HPM_P1;HPM_P2
2023/06/29 00:02:00;;;;;;;7.53;3.50;;;;;;;15.19;100.00;96690.50;4983916;28;20046;-68
2023/06/29 00:04:25;;;;;;;8.05;3.92;;;;;;;15.07;100.00;96688.97;4998692;28;20495;-70
2023/06/29 00:06:54;;;;;;;6.20;4.03;;;;;;;14.78;100.00;96688.19;4997095;28;20379;-70
2023/06/29 00:09:21;;;;;;;8.43;3.90;;;;;;;14.61;100.00;96691.75;4984714;28;20519;-70
2023/06/29 00:11:47;;;;;;;7.50;3.90;;;;;;;14.77;100.00;96685.84;4981059;28;20125;-70
2023/06/29 00:14:12;;;;;;;8.32;3.80;;;;;;;14.89;100.00;96688.97;4977018;28;20049;-69
2023/06/29 00:16:37;;;;;;;6.95;3.78;;;;;;;14.93;100.00;96690.94;4963654;28;20035;-69
2023/06/29 00:19:03;;;;;;;8.75;4.00;;;;;;;14.96;100.00;96677.13;4976996;28;20065;-69
2023/06/29 00:21:28;;;;;;;8.02;3.90;;;;;;;14.98;100.00;96680.31;4981322;28;20052;-69
2023/06/29 00:23:54;;;;;;;6.57;4.07;;;;;;;14.99;100.00;96686.59;4982325;28;20038;-70
2023/06/29 00:26:21;;;;;;;7.43;4.15;;;;;;;14.89;100.00;96677.94;4979200;28;20042;-67
2023/06/29 00:28:47;;;;;;;8.23;3.88;;;;;;;14.83;100.00;96674.00;4983198;28;20444;-69
2023/06/29 00:31:12;;;;;;;7.85;4.03;;;;;;;14.85;100.00;96668.88;4978247;28;20089;-69
2023/06/29 00:33:38;;;;;;;8.65;4.00;;;;;;;14.94;100.00;96673.22;4981998;28;20038;-69
2023/06/29 00:36:04;;;;;;;8.57;3.90;;;;;;;14.99;100.00;96673.59;4978873;28;20050;-63
2023/06/29 00:38:29;;;;;;;8.05;4.15;;;;;;;14.87;100.00;96674.81;4982849;28;20065;-68
2023/06/29 00:40:55;;;;;;;5.07;3.80;;;;;;;14.80;100.00;96668.50;4982594;28;20043;-67
2023/06/29 00:43:21;;;;;;;9.90;4.10;;;;;;;14.69;100.00;96679.53;4978866;28;20045;-68
2023/06/29 00:45:47;;;;;;;7.70;4.13;;;;;;;14.66;100.00;96672.84;4982758;28;20097;-67
2023/06/29 00:48:13;;;;;;;11.85;4.30;;;;;;;14.50;100.00;96672.41;4978134;28;20089;-69
2023/06/29 00:50:40;;;;;;;7.85;4.15;;;;;;;14.39;100.00;96668.88;4985577;28;20025;-69
2023/06/29 00:53:06;;;;;;;7.35;4.50;;;;;;;14.40;100.00;96671.22;4979821;28;20504;-68
2023/06/29 00:55:31;;;;;;;9.95;4.00;;;;;;;14.45;100.00;96664.53;4983317;28;20050;-69
2023/06/29 00:57:57;;;;;;;6.18;4.00;;;;;;;14.48;100.00;96669.28;4983005;28;20042;-69
2023/06/29 01:00:23;;;;;;;6.97;4.10;;;;;;;14.46;100.00;96669.66;4985851;28;20039;-69
2023/06/29 01:02:48;;;;;;;9.38;4.43;;;;;;;14.32;100.00;96677.91;4986044;28;20216;-67
2023/06/29 01:05:15;;;;;;;8.77;4.25;;;;;;;14.29;100.00;96664.91;4977467;28;20038;-67
2023/06/29 01:07:56;;;;;;;9.13;4.30;;;;;;;14.36;100.00;96661.38;4986835;28;20038;-67
2023/06/29 01:10:25;;;;;;;8.23;4.28;;;;;;;14.50;100.00;96662.16;4991629;28;20042;-68
2023/06/29 01:12:52;;;;;;;7.30;4.47;;;;;;;14.59;100.00;96655.53;5000982;28;20038;-69
2023/06/29 01:15:20;;;;;;;6.70;4.22;;;;;;;14.65;100.00;96651.97;4997056;28;20045;-70
2023/06/29 01:17:47;;;;;;;7.25;4.25;;;;;;;14.64;100.00;96658.66;5001384;28;20046;-70
2023/06/29 01:20:15;;;;;;;7.97;4.47;;;;;;;14.56;100.00;96648.78;4996609;28;20038;-69
2023/06/29 01:22:52;;;;;;;6.53;4.03;;;;;;;14.50;100.00;96642.09;5001128;28;20038;-68
2023/06/29 01:25:20;;;;;;;7.30;4.50;;;;;;;14.44;100.00;96638.16;4997451;28;20046;-69
2023/06/29 01:27:46;;;;;;;7.97;4.05;;;;;;;14.33;100.00;96638.16;4983563;28;20042;-70
2023/06/29 01:30:12;;;;;;;5.38;4.05;;;;;;;14.22;100.00;96642.88;4997536;28;20038;-69
2023/06/29 01:32:37;;;;;;;7.60;4.85;;;;;;;14.04;100.00;96646.38;5001707;28;20381;-68
2023/06/29 01:35:04;;;;;;;10.35;4.80;;;;;;;14.10;100.00;96644.06;4999664;28;20046;-62
2023/06/29 01:37:38;;;;;;;11.73;4.95;;;;;;;14.16;100.00;96650.72;5002069;28;20046;-69
2023/06/29 01:40:10;;;;;;;7.35;4.30;;;;;;;13.80;100.00;96639.66;4996914;28;20053;-65
2023/06/29 01:42:38;;;;;;;7.57;4.00;;;;;;;13.69;100.00;96644.34;5001771;28;20447;-68
2023/06/29 01:45:05;;;;;;;7.85;4.68;;;;;;;13.39;100.00;96629.66;4998810;28;20095;-62
2023/06/29 01:47:31;;;;;;;11.02;5.68;;;;;;;12.68;100.00;96635.53;5002026;28;20128;-68
2023/06/29 01:49:57;;;;;;;10.10;5.50;;;;;;;12.50;100.00;96629.13;4991007;28;20038;-68
2023/06/29 01:52:24;;;;;;;9.40;5.57;;;;;;;12.55;100.00;96624.06;4982096;28;20086;-68
2023/06/29 01:54:50;;;;;;;9.52;4.80;;;;;;;12.76;100.00;96630.88;4981714;28;20046;-67
2023/06/29 01:57:16;;;;;;;7.85;4.80;;;;;;;13.03;100.00;96622.41;4972293;28;20046;-67
2023/06/29 01:59:41;;;;;;;8.32;4.50;;;;;;;13.29;100.00;96619.41;4982686;28;20516;-69
2023/06/29 02:02:07;;;;;;;9.88;4.68;;;;;;;13.37;100.00;96626.50;4975952;28;20523;-64
2023/06/29 02:04:33;;;;;;;7.47;4.20;;;;;;;13.28;100.00;96626.06;4963641;28;20129;-68
2023/06/29 02:06:59;;;;;;;6.97;4.82;;;;;;;13.24;100.00;96627.22;4982004;28;20040;-69
2023/06/29 02:09:24;;;;;;;8.27;3.97;;;;;;;13.42;100.00;96619.09;4985407;28;20638;-69
2023/06/29 02:11:49;;;;;;;9.45;4.60;;;;;;;13.46;100.00;96620.66;5001403;28;20052;-70
2023/06/29 02:14:18;;;;;;;8.07;4.55;;;;;;;13.29;100.00;96613.09;4997587;28;20057;-68
2023/06/29 02:16:47;;;;;;;7.57;4.15;;;;;;;13.34;100.00;96630.06;5001211;28;20138;-70
2023/06/29 02:19:13;;;;;;;7.65;4.70;;;;;;;13.45;100.00;96610.84;4995219;28;20034;-69
2023/06/29 02:21:39;;;;;;;7.03;4.18;;;;;;;13.45;100.00;96619.09;5001566;28;20037;-67
2023/06/29 02:24:04;;;;;;;9.02;4.35;;;;;;;13.55;100.00;96614.81;4996469;28;20062;-64
2023/06/29 02:26:32;;;;;;;7.40;4.05;;;;;;;13.65;100.00;96603.03;4999828;28;20471;-69
2023/06/29 02:28:57;;;;;;;12.43;4.55;;;;;;;13.61;100.00;96612.44;5001532;28;20042;-70
2023/06/29 02:31:22;;;;;;;7.82;4.63;;;;;;;13.43;100.00;96607.66;4979235;28;20849;-70
2023/06/29 02:33:49;;;;;;;7.40;4.15;;;;;;;13.38;100.00;96610.81;5001448;28;20034;-70
2023/06/29 02:36:15;;;;;;;5.75;4.38;;;;;;;13.40;100.00;96608.47;4999758;28;20048;-69
2023/06/29 02:38:41;;;;;;;7.30;4.43;;;;;;;13.40;100.00;96600.22;5005421;28;20398;-69
2023/06/29 02:41:06;;;;;;;8.23;4.40;;;;;;;13.42;100.00;96603.38;5000234;28;20042;-67
2023/06/29 02:43:33;;;;;;;6.88;4.13;;;;;;;13.50;100.00;96599.44;4987026;28;20442;-69
2023/06/29 02:45:59;;;;;;;6.72;4.80;;;;;;;13.44;100.00;96613.97;5004622;28;20104;-68
2023/06/29 02:48:25;;;;;;;12.45;5.60;;;;;;;13.09;100.00;96609.84;5000015;28;20046;-70
2023/06/29 02:50:50;;;;;;;8.68;4.45;;;;;;;13.09;100.00;96604.34;4986158;28;20040;-69
2023/06/29 02:53:16;;;;;;;7.80;4.13;;;;;;;13.19;100.00;96607.16;4984925;28;20038;-68
2023/06/29 02:55:42;;;;;;;8.73;4.32;;;;;;;13.29;100.00;96605.66;4984771;28;20074;-67
2023/06/29 02:58:07;;;;;;;6.90;4.25;;;;;;;13.38;100.00;96608.84;4995635;28;20053;-67
2023/06/29 03:00:33;;;;;;;8.45;4.30;;;;;;;13.43;100.00;96607.66;4997434;28;20381;-68
2023/06/29 03:02:58;;;;;;;7.28;4.00;;;;;;;13.49;100.00;96610.84;4984352;28;20066;-70
2023/06/29 03:05:23;;;;;;;7.35;4.70;;;;;;;13.42;100.00;96619.88;4983169;28;20570;-70
2023/06/29 03:07:49;;;;;;;7.93;4.43;;;;;;;13.42;100.00;96621.84;4986932;28;20037;-69
2023/06/29 03:10:14;;;;;;;7.30;4.43;;;;;;;13.52;100.00;96613.63;4985410;28;20054;-68
2023/06/29 03:12:41;;;;;;;6.32;4.50;;;;;;;13.48;100.00;96607.31;4984448;28;20104;-70
2023/06/29 03:15:07;;;;;;;5.85;4.30;;;;;;;13.50;100.00;96609.66;4971928;28;20155;-68
2023/06/29 03:17:32;;;;;;;6.88;4.55;;;;;;;13.48;100.00;96614.78;4962607;28;20442;-69
2023/06/29 03:19:58;;;;;;;9.55;4.70;;;;;;;13.39;100.00;96615.13;4978905;28;20081;-70
2023/06/29 03:22:26;;;;;;;5.68;4.53;;;;;;;13.36;100.00;96613.94;4979425;28;20243;-68
2023/06/29 03:24:52;;;;;;;7.10;4.28;;;;;;;13.41;100.00;96610.03;4984882;28;20042;-69
2023/06/29 03:27:17;;;;;;;6.80;4.47;;;;;;;13.39;100.00;96610.41;4980072;28;20467;-70
2023/06/29 03:29:42;;;;;;;7.78;4.15;;;;;;;13.39;100.00;96612.38;4984626;28;20050;-68
2023/06/29 03:32:08;;;;;;;8.38;4.35;;;;;;;13.47;100.00;96602.19;4979335;28;20112;-69
2023/06/29 03:34:33;;;;;;;6.22;4.22;;;;;;;13.51;100.00;96609.28;4983662;28;20720;-69
2023/06/29 03:36:59;;;;;;;10.13;4.50;;;;;;;13.51;100.00;96608.50;4984304;28;20507;-68
2023/06/29 03:39:24;;;;;;;6.72;4.43;;;;;;;13.57;100.00;96607.72;4979309;28;20395;-70
2023/06/29 03:41:49;;;;;;;7.05;4.07;;;;;;;13.63;100.00;96608.16;4984624;28;20054;-68
2023/06/29 03:44:15;;;;;;;6.40;4.55;;;;;;;13.62;100.00;96600.28;4992698;28;20491;-68
2023/06/29 03:46:40;;;;;;;9.75;4.38;;;;;;;13.69;100.00;96595.56;5003107;28;20042;-69
2023/06/29 03:49:05;;;;;;;7.10;4.40;;;;;;;13.75;100.00;96596.75;4995006;28;20034;-69
2023/06/29 03:51:31;;;;;;;7.72;4.18;;;;;;;13.77;100.00;96602.69;4984185;28;20042;-70
2023/06/29 03:53:56;;;;;;;5.20;3.95;;;;;;;13.84;100.00;96603.88;4983831;28;20038;-70
2023/06/29 03:56:22;;;;;;;8.20;4.20;;;;;;;13.96;100.00;96601.53;4979199;28;20049;-69
2023/06/29 03:58:47;;;;;;;8.77;4.45;;;;;;;14.03;100.00;96598.00;4965000;28;20039;-70
2023/06/29 04:01:12;;;;;;;6.55;4.22;;;;;;;14.10;100.00;96605.50;4978397;28;20042;-70
2023/06/29 04:03:38;;;;;;;7.68;4.47;;;;;;;14.15;100.00;96608.63;4987612;28;20039;-69
2023/06/29 04:06:03;;;;;;;9.00;3.92;;;;;;;14.24;100.00;96596.44;4984688;28;20070;-65
2023/06/29 04:08:29;;;;;;;9.15;3.85;;;;;;;14.32;100.00;96598.78;4991568;28;20037;-71
2023/06/29 04:10:54;;;;;;;9.35;3.90;;;;;;;14.46;100.00;96598.00;4994714;28;20041;-71
2023/06/29 04:13:21;;;;;;;10.13;4.55;;;;;;;14.63;100.00;96601.19;4997806;28;20052;-69
2023/06/29 04:15:46;;;;;;;8.20;3.92;;;;;;;14.72;100.00;96598.78;5006276;28;20460;-71
2023/06/29 04:18:12;;;;;;;6.07;3.92;;;;;;;14.89;100.00;96600.75;5000831;28;20054;-71
2023/06/29 04:20:37;;;;;;;6.35;3.55;;;;;;;15.09;100.00;96603.06;5003444;28;20042;-71
2023/06/29 04:23:03;;;;;;;9.15;4.10;;;;;;;15.19;100.00;96596.69;4999689;28;20046;-66
2023/06/29 04:25:28;;;;;;;6.28;4.35;;;;;;;15.30;100.00;96596.66;5001133;28;20052;-71
2023/06/29 04:27:53;;;;;;;6.55;3.63;;;;;;;15.41;100.00;96611.22;5002681;28;20093;-72
2023/06/29 04:30:19;;;;;;;7.93;3.92;;;;;;;15.52;100.00;96608.41;4998296;28;20038;-73
2023/06/29 04:32:46;;;;;;;7.65;3.80;;;;;;;15.80;98.88;96601.19;5002464;28;20050;-70
2023/06/29 04:35:12;;;;;;;9.32;4.05;;;;;;;16.05;97.00;96598.28;4997464;28;20133;-71
2023/06/29 04:37:41;;;;;;;6.90;4.00;;;;;;;16.29;95.84;96609.56;5002624;28;20049;-72
2023/06/29 04:40:14;;;;;;;6.57;3.58;;;;;;;16.58;94.40;96610.91;4999090;28;20040;-71
2023/06/29 04:42:45;;;;;;;10.93;3.83;;;;;;;16.97;91.96;96608.97;5002292;28;20140;-70
2023/06/29 04:45:12;;;;;;;9.00;3.80;;;;;;;17.43;88.47;96598.56;4998115;28;20141;-71
2023/06/29 04:47:40;;;;;;;6.32;3.50;;;;;;;17.70;86.77;96595.84;5002940;28;20136;-69
2023/06/29 04:50:07;;;;;;;5.63;2.83;;;;;;;17.88;86.34;96599.19;4986036;28;20129;-72
2023/06/29 04:52:36;;;;;;;7.82;3.72;;;;;;;18.70;80.08;96597.09;4983886;28;20042;-71
2023/06/29 04:55:04;;;;;;;7.87;3.23;;;;;;;19.46;76.01;96595.72;4983765;28;20121;-66
2023/06/29 04:57:30;;;;;;;10.60;3.58;;;;;;;19.41;73.16;96591.47;4984830;28;20679;-71
2023/06/29 04:59:56;;;;;;;4.38;2.70;;;;;;;20.89;66.15;96579.78;4987496;28;20042;-71
2023/06/29 05:02:22;;;;;;;11.30;4.32;;;;;;;22.48;59.94;96590.69;4979318;28;20588;-71
2023/06/29 05:04:48;;;;;;;6.85;3.35;;;;;;;21.54;59.39;96581.59;4992496;28;20104;-72
2023/06/29 05:07:14;;;;;;;7.63;3.45;;;;;;;23.00;56.69;96583.72;4996625;28;20052;-70
2023/06/29 05:09:39;;;;;;;6.15;2.35;;;;;;;24.40;51.12;96581.34;4979743;28;20129;-71
2023/06/29 05:12:05;;;;;;;6.80;2.78;;;;;;;24.84;49.28;96569.16;4976333;28;20080;-67
2023/06/29 05:14:31;;;;;;;5.90;2.67;;;;;;;24.88;48.24;96574.63;4982700;28;20038;-70
2023/06/29 05:16:57;;;;;;;3.75;2.53;;;;;;;26.04;45.60;96565.50;4980859;28;20065;-70
2023/06/29 05:19:25;;;;;;;5.60;2.72;;;;;;;26.70;43.24;96579.53;4978265;28;20146;-69
2023/06/29 05:21:51;;;;;;;4.25;2.42;;;;;;;27.36;41.50;96582.66;4982783;28;20053;-68
2023/06/29 05:24:16;;;;;;;7.78;2.70;;;;;;;27.49;40.90;96585.19;4976341;28;20046;-70
2023/06/29 05:26:44;;;;;;;5.45;3.00;;;;;;;26.30;43.13;96583.44;4981223;28;20050;-69
2023/06/29 05:29:09;;;;;;;8.38;3.13;;;;;;;27.82;40.43;96590.63;4975465;28;20357;-70
2023/06/29 05:31:35;;;;;;;7.03;2.83;;;;;;;28.13;39.56;96589.41;4982253;28;20488;-70
2023/06/29 05:34:00;;;;;;;5.35;2.78;;;;;;;29.30;37.26;96585.94;4979621;28;20116;-70
2023/06/29 05:36:26;;;;;;;8.13;2.67;;;;;;;29.99;36.03;96577.63;4977437;28;20150;-69
2023/06/29 05:38:52;;;;;;;5.50;2.45;;;;;;;30.81;34.58;96580.03;4982268;28;20046;-70
2023/06/29 05:41:17;;;;;;;7.35;3.25;;;;;;;29.87;35.11;96581.63;4977332;28;20113;-68
2023/06/29 05:43:42;;;;;;;6.72;2.63;;;;;;;30.69;34.56;96579.19;4981136;28;20038;-69
2023/06/29 05:46:08;;;;;;;5.57;2.53;;;;;;;31.11;33.21;96582.47;4977589;28;20038;-69
2023/06/29 05:48:33;;;;;;;5.35;2.85;;;;;;;30.75;33.03;96584.09;4982484;28;20400;-69
2023/06/29 05:50:59;;;;;;;6.63;2.65;;;;;;;30.97;33.61;96578.59;4981877;28;20089;-70
2023/06/29 05:53:24;;;;;;;6.38;2.40;;;;;;;30.74;33.38;96582.53;4975818;28;20038;-69
2023/06/29 05:55:49;;;;;;;4.15;2.03;;;;;;;30.43;33.69;96587.78;4981513;28;20436;-69
2023/06/29 05:58:15;;;;;;;5.10;2.33;;;;;;;30.67;33.91;96590.22;4976876;28;20048;-69
2023/06/29 06:00:40;;;;;;;5.63;2.65;;;;;;;30.24;34.64;96595.03;4981091;28;20038;-69
2023/06/29 06:03:06;;;;;;;7.97;2.30;;;;;;;30.65;35.11;96594.84;4977268;28;20101;-70
2023/06/29 06:05:31;;;;;;;5.03;2.10;;;;;;;30.95;34.36;96588.84;4982272;28;20125;-70
2023/06/29 06:07:57;;;;;;;6.05;2.40;;;;;;;31.63;33.30;96595.53;4984802;28;20042;-69
2023/06/29 06:10:22;;;;;;;8.38;2.55;;;;;;;30.16;35.05;96596.75;4989816;28;20491;-70
2023/06/29 06:12:48;;;;;;;5.80;2.38;;;;;;;31.06;32.75;96589.69;4985589;28;20490;-72
2023/06/29 06:15:14;;;;;;;6.85;2.50;;;;;;;30.05;34.35;96586.94;4980701;28;20053;-70
2023/06/29 06:17:40;;;;;;;6.50;2.38;;;;;;;31.21;33.88;96581.00;4984389;28;20574;-71
2023/06/29 06:20:06;;;;;;;4.57;2.30;;;;;;;31.00;34.08;96588.88;4980556;28;20496;-68
2023/06/29 06:22:32;;;;;;;6.72;2.63;;;;;;;27.10;40.26;96585.97;4985077;28;20081;-72
2023/06/29 06:25:00;;;;;;;6.45;2.55;;;;;;;29.08;37.79;96580.75;4985954;28;20058;-72
2023/06/29 06:27:26;;;;;;;8.23;2.77;;;;;;;30.25;34.83;96590.94;4980888;28;20399;-72
2023/06/29 06:29:51;;;;;;;6.28;2.38;;;;;;;32.14;31.62;96587.91;4986439;28;20038;-71
2023/06/29 06:32:16;;;;;;;5.70;2.33;;;;;;;31.09;32.11;96587.88;4978894;28;20038;-73
2023/06/29 06:34:43;;;;;;;8.20;2.38;;;;;;;32.52;30.57;96587.59;4984705;28;20137;-70
2023/06/29 06:37:09;;;;;;;6.47;2.25;;;;;;;30.73;33.03;96587.41;4979697;28;20046;-70
2023/06/29 06:39:34;;;;;;;4.88;2.30;;;;;;;30.76;33.25;96580.00;4984756;28;20145;-71
2023/06/29 06:42:00;;;;;;;4.88;2.53;;;;;;;27.70;37.42;96580.47;4984608;28;20121;-67
2023/06/29 06:44:25;;;;;;;4.63;2.80;;;;;;;26.69;39.20;96575.16;4983038;28;20570;-73
2023/06/29 06:46:51;;;;;;;12.70;3.00;;;;;;;24.68;44.55;96575.81;4985360;28;20082;-74
2023/06/29 06:49:16;;;;;;;3.33;2.17;;;;;;;27.88;37.99;96571.81;4979608;28;20034;-73
2023/06/29 06:51:42;;;;;;;6.75;2.58;;;;;;;29.52;35.23;96572.03;4986063;28;20070;-73
2023/06/29 06:54:07;;;;;;;8.05;2.70;;;;;;;30.11;34.03;96565.16;4981820;28;20515;-70
2023/06/29 06:56:33;;;;;;;5.95;2.72;;;;;;;29.68;34.27;96564.25;4985084;28;20043;-69
2023/06/29 06:58:58;;;;;;;6.68;2.50;;;;;;;31.28;31.87;96562.75;4984534;28;20185;-72
2023/06/29 07:01:26;;;;;;;5.97;3.05;;;;;;;28.75;36.02;96562.91;4979073;28;20514;-70
2023/06/29 07:03:51;;;;;;;7.55;3.05;;;;;;;27.35;37.39;96567.03;4984133;28;20391;-73
2023/06/29 07:06:18;;;;;;;4.45;2.50;;;;;;;27.64;38.12;96560.66;4980169;28;20053;-73
2023/06/29 07:08:43;;;;;;;8.73;3.10;;;;;;;25.42;41.86;96563.88;4990914;28;20399;-73
2023/06/29 07:11:09;;;;;;;7.82;2.75;;;;;;;26.22;40.82;96561.81;4979656;28;20117;-72
2023/06/29 07:13:34;;;;;;;9.10;2.88;;;;;;;26.97;39.30;96565.75;4984311;28;20304;-72
2023/06/29 07:16:00;;;;;;;8.65;4.03;;;;;;;29.28;35.29;96569.50;4984552;28;20062;-74
2023/06/29 07:18:25;;;;;;;10.10;3.50;;;;;;;26.30;39.51;96571.44;4979374;28;20081;-73
2023/06/29 07:20:51;;;;;;;6.75;3.35;;;;;;;26.23;40.46;96564.13;4984089;28;20132;-71
2023/06/29 07:23:16;;;;;;;6.43;3.20;;;;;;;26.92;39.06;96555.19;4978164;28;20046;-72
2023/06/29 07:25:42;;;;;;;5.82;2.78;;;;;;;28.12;36.84;96559.69;4984266;28;20058;-72
2023/06/29 07:28:07;;;;;;;6.25;3.40;;;;;;;25.80;39.89;96560.53;4980258;28;20046;-73
2023/06/29 07:30:33;;;;;;;11.32;3.13;;;;;;;25.86;40.70;96552.28;4983849;28;20492;-73
2023/06/29 07:32:58;;;;;;;9.75;3.55;;;;;;;24.18;44.24;96541.47;4984260;28;20468;-71
2023/06/29 07:35:24;;;;;;;6.88;3.42;;;;;;;24.04;44.80;96549.19;4980212;28;20042;-73
2023/06/29 07:37:49;;;;;;;8.98;3.50;;;;;;;25.17;43.10;96551.72;4984402;28;20042;-73
2023/06/29 07:40:15;;;;;;;6.90;3.10;;;;;;;27.28;38.25;96554.16;4979831;28;20491;-74
2023/06/29 07:42:40;;;;;;;7.75;3.63;;;;;;;26.93;39.44;96548.31;4983265;28;20104;-73
2023/06/29 07:45:06;;;;;;;7.53;3.15;;;;;;;26.27;41.03;96547.91;4979608;28;20042;-73
2023/06/29 07:47:32;;;;;;;7.43;3.60;;;;;;;25.10;42.67;96550.03;4983907;28;20042;-72
2023/06/29 07:49:57;;;;;;;11.00;3.28;;;;;;;26.41;41.84;96540.03;4962969;28;20043;-71
2023/06/29 07:52:22;;;;;;;7.45;3.30;;;;;;;24.74;44.59;96539.59;4970613;28;20563;-73
2023/06/29 07:54:49;;;;;;;5.95;2.85;;;;;;;25.44;43.43;96534.13;4983889;28;20050;-72
2023/06/29 07:57:15;;;;;;;7.68;2.90;;;;;;;27.52;39.74;96539.22;4978070;28;20514;-72
2023/06/29 07:59:40;;;;;;;6.15;3.30;;;;;;;24.96;42.77;96534.63;4983911;28;20043;-73
2023/06/29 08:02:05;;;;;;;5.28;3.30;;;;;;;25.98;41.98;96542.13;4977930;28;20050;-71
2023/06/29 08:04:32;;;;;;;7.60;3.70;;;;;;;25.26;42.47;96532.13;4983986;28;20038;-73
2023/06/29 08:06:57;;;;;;;7.18;3.33;;;;;;;26.27;42.12;96528.28;4984743;28;20098;-72
2023/06/29 08:09:23;;;;;;;8.45;4.10;;;;;;;25.67;42.38;96527.06;4984396;28;20134;-72
2023/06/29 08:11:48;;;;;;;8.02;3.20;;;;;;;26.45;41.74;96524.56;5001167;28;20046;-73
2023/06/29 08:14:14;;;;;;;10.27;6.28;;;;;;;25.10;43.51;96526.81;4988972;28;20038;-70
2023/06/29 08:16:39;;;;;;;6.75;3.30;;;;;;;26.24;41.92;96525.63;4982732;28;20101;-69
2023/06/29 08:19:05;;;;;;;7.28;3.42;;;;;;;26.41;40.68;96534.41;4957820;28;20046;-70
2023/06/29 08:21:30;;;;;;;7.65;2.83;;;;;;;27.25;39.15;96527.72;4982865;28;20066;-69
2023/06/29 08:23:56;;;;;;;7.13;3.75;;;;;;;27.11;39.76;96520.03;4982289;28;20096;-72
2023/06/29 08:26:21;;;;;;;6.97;3.25;;;;;;;25.23;43.72;96530.25;4977065;28;20113;-71
2023/06/29 08:28:46;;;;;;;6.45;3.15;;;;;;;24.93;43.94;96523.56;4979978;28;20134;-68
2023/06/29 08:31:12;;;;;;;9.20;3.53;;;;;;;24.36;45.82;96527.53;4977053;28;20086;-69
2023/06/29 08:33:38;;;;;;;6.55;3.40;;;;;;;24.89;44.28;96522.97;4981109;28;20136;-70
2023/06/29 08:36:04;;;;;;;8.57;3.20;;;;;;;25.97;42.47;96521.69;4977537;28;20449;-69
2023/06/29 08:38:29;;;;;;;5.25;2.88;;;;;;;27.14;39.62;96521.91;4982311;28;20046;-73
2023/06/29 08:40:58;;;;;;;8.65;3.00;;;;;;;26.00;41.39;96514.34;4983082;28;20138;-70
2023/06/29 08:43:24;;;;;;;5.83;3.13;;;;;;;25.96;41.94;96513.75;4995103;28;20044;-71
2023/06/29 08:45:49;;;;;;;6.28;3.45;;;;;;;25.51;42.10;96513.41;5010432;28;20387;-72
2023/06/29 08:48:17;;;;;;;8.15;3.42;;;;;;;26.13;40.57;96504.47;4988782;28;20447;-72
2023/06/29 08:50:51;;;;;;;9.38;3.70;;;;;;;26.50;41.02;96503.47;4985431;28;20038;-72
2023/06/29 08:53:17;;;;;;;8.15;3.17;;;;;;;27.80;37.14;96509.53;4977137;28;20049;-71
2023/06/29 08:55:43;;;;;;;9.93;3.10;;;;;;;27.68;37.46;96501.38;4990159;28;20410;-73
2023/06/29 08:58:08;;;;;;;7.70;3.20;;;;;;;27.75;37.22;96512.22;4989949;28;20049;-72
2023/06/29 09:00:35;;;;;;;10.40;3.17;;;;;;;28.59;35.20;96504.31;4979179;28;20046;-70
2023/06/29 09:03:03;;;;;;;9.02;2.92;;;;;;;28.85;35.69;96506.44;4979289;28;20070;-73
2023/06/29 09:05:29;;;;;;;7.70;2.55;;;;;;;29.50;35.01;96506.88;4978872;28;20050;-71
2023/06/29 09:07:54;;;;;;;11.05;2.90;;;;;;;29.11;35.07;96507.22;4998575;28;20387;-72
2023/06/29 09:10:20;;;;;;;5.80;3.05;;;;;;;27.82;34.83;96509.81;4986296;28;20401;-73
2023/06/29 09:12:45;;;;;;;7.22;2.97;;;;;;;27.58;36.11;96498.66;4988319;28;20111;-73
2023/06/29 09:15:11;;;;;;;5.65;3.45;;;;;;;27.22;40.82;96509.00;4975276;28;20042;-72
2023/06/29 09:17:36;;;;;;;9.00;4.00;;;;;;;27.60;40.97;96510.22;4980231;28;20038;-72
2023/06/29 09:20:13;;;;;;;6.70;3.60;;;;;;;27.70;41.03;96502.47;4981587;28;20054;-69
2023/06/29 09:22:39;;;;;;;6.60;3.53;;;;;;;28.10;40.92;96503.88;4976608;28;20111;-72
2023/06/29 09:25:06;;;;;;;7.90;3.45;;;;;;;27.95;41.06;96497.50;4985303;28;20038;-71
2023/06/29 09:27:33;;;;;;;8.85;3.60;;;;;;;28.17;40.12;96494.25;5001642;28;20077;-72
2023/06/29 09:30:00;;;;;;;8.73;3.70;;;;;;;28.45;40.13;96499.47;4991144;28;20042;-72
2023/06/29 09:32:28;;;;;;;6.20;3.28;;;;;;;28.27;41.52;96492.06;4977170;28;20070;-72
2023/06/29 09:34:54;;;;;;;10.10;3.53;;;;;;;28.00;40.04;96497.59;4964795;28;20046;-73
2023/06/29 09:37:20;;;;;;;8.07;3.30;;;;;;;28.66;39.22;96495.44;4988597;28;20034;-72
2023/06/29 09:39:58;;;;;;;6.70;3.50;;;;;;;29.04;37.69;96487.91;4987229;28;20180;-72
2023/06/29 09:42:26;;;;;;;6.53;3.43;;;;;;;28.87;40.49;96493.38;4976815;28;20437;-70
2023/06/29 09:44:52;;;;;;;7.63;3.47;;;;;;;28.83;39.86;96492.03;5006260;28;20058;-72
2023/06/29 09:47:17;;;;;;;7.82;4.25;;;;;;;28.50;40.94;96485.47;5000162;28;20052;-71
2023/06/29 09:49:48;;;;;;;8.23;3.55;;;;;;;28.30;40.20;96486.22;4979280;28;20042;-74
2023/06/29 09:52:15;;;;;;;7.95;3.40;;;;;;;28.79;38.85;96480.97;4963271;28;20069;-73
2023/06/29 09:54:40;;;;;;;6.80;3.17;;;;;;;29.49;37.00;96473.53;4987979;28;20038;-73
2023/06/29 09:57:07;;;;;;;8.20;3.40;;;;;;;29.38;36.29;96471.38;4984539;28;20108;-71
2023/06/29 09:59:45;;;;;;;7.00;3.05;;;;;;;26.60;38.87;96473.31;4978848;28;20042;-73
2023/06/29 10:02:14;;;;;;;5.75;2.90;;;;;;;26.66;39.16;96469.38;4988198;28;20050;-72
2023/06/29 10:04:41;;;;;;;8.43;3.20;;;;;;;26.74;40.83;96469.78;5009662;28;20111;-73
2023/06/29 10:07:15;;;;;;;7.53;3.40;;;;;;;27.14;42.33;96465.69;5002996;28;20041;-71
2023/06/29 10:09:42;;;;;;;15.75;3.75;;;;;;;27.82;40.51;96464.78;5002047;28;20038;-70
2023/06/29 10:12:10;;;;;;;10.30;3.30;;;;;;;26.62;40.37;96465.97;4996764;28;20099;-71
2023/06/29 10:14:41;;;;;;;6.50;3.53;;;;;;;26.62;41.23;96468.00;5007999;28;20056;-73
2023/06/29 10:17:32;;;;;;;7.22;3.67;;;;;;;26.67;40.83;96459.69;4988912;28;20049;-73
2023/06/29 10:20:00;;;;;;;7.53;3.28;;;;;;;28.39;37.33;96462.78;5002008;28;20038;-73
2023/06/29 10:22:27;;;;;;;7.47;3.42;;;;;;;29.06;34.75;96467.69;4985846;28;20052;-74
2023/06/29 10:24:56;;;;;;;10.52;4.20;;;;;;;29.77;33.19;96462.50;4993398;28;20057;-72
2023/06/29 10:27:23;;;;;;;6.77;3.27;;;;;;;30.15;32.90;96460.44;5003136;28;20034;-73
2023/06/29 10:29:50;;;;;;;8.13;4.70;;;;;;;30.64;29.95;96460.44;4993401;28;20057;-72
2023/06/29 10:32:35;;;;;;;9.50;5.75;;;;;;;30.26;28.46;96465.38;4991842;28;20404;-71
2023/06/29 10:35:11;;;;;;;8.85;4.60;;;;;;;30.49;31.11;96455.00;4991423;28;20166;-73
2023/06/29 10:37:44;;;;;;;6.32;4.60;;;;;;;31.21;29.67;96455.75;4989408;28;20125;-72
2023/06/29 10:40:17;;;;;;;7.80;4.70;;;;;;;31.55;29.51;96445.25;4984541;28;20080;-72
2023/06/29 10:42:43;;;;;;;9.57;5.18;;;;;;;31.65;29.58;96450.66;4988577;28;20178;-74
2023/06/29 10:45:17;;;;;;;7.63;4.20;;;;;;;31.57;30.86;96445.50;4984369;28;20081;-73
2023/06/29 10:47:58;;;;;;;8.70;4.40;;;;;;;31.38;30.29;96435.97;4971167;28;20282;-73
2023/06/29 10:50:32;;;;;;;11.18;3.85;;;;;;;31.42;30.33;96442.13;4984348;28;20038;-73
2023/06/29 10:52:59;;;;;;;6.47;3.92;;;;;;;31.41;29.82;96443.44;4989575;28;20070;-71
2023/06/29 10:55:26;;;;;;;7.68;4.28;;;;;;;31.32;30.20;96444.44;4966768;28;20526;-73
2023/06/29 10:57:57;;;;;;;9.65;4.32;;;;;;;31.25;30.24;96447.78;4969836;28;20066;-71
2023/06/29 11:00:25;;;;;;;6.30;3.60;;;;;;;31.72;31.32;96439.59;4980567;28;20904;-71
2023/06/29 11:02:51;;;;;;;9.02;3.90;;;;;;;31.71;31.59;96445.75;4986411;28;20051;-73
2023/06/29 11:05:19;;;;;;;7.03;4.05;;;;;;;31.15;32.54;96438.00;4983052;28;20046;-72
2023/06/29 11:07:50;;;;;;;7.88;3.97;;;;;;;30.71;32.18;96430.94;4986303;28;20527;-71
2023/06/29 11:10:21;;;;;;;8.95;3.88;;;;;;;30.74;32.81;96427.84;4986193;28;20081;-70
2023/06/29 11:12:50;;;;;;;10.30;3.92;;;;;;;30.96;32.35;96432.81;4987745;28;20137;-73
2023/06/29 11:15:17;;;;;;;11.13;3.85;;;;;;;31.07;31.88;96426.41;5000494;28;20045;-73
2023/06/29 11:17:44;;;;;;;10.55;4.13;;;;;;;31.25;31.42;96430.81;5004024;28;20395;-70
2023/06/29 11:20:14;;;;;;;7.22;3.92;;;;;;;30.61;32.64;96422.69;4974969;28;20042;-71
2023/06/29 11:22:41;;;;;;;8.35;4.10;;;;;;;29.82;33.38;96422.25;4975547;28;20042;-69
2023/06/29 11:25:08;;;;;;;10.13;4.03;;;;;;;29.48;34.82;96415.56;4969890;28;20038;-71
2023/06/29 11:27:33;;;;;;;6.78;3.78;;;;;;;29.32;35.49;96420.56;4963711;28;20057;-69